createdAt,value
2022-09-07T00:01:30.644Z,1.73
2022-09-07T00:04:33.314Z,2.00
2022-09-07T00:07:36.003Z,1.97
2022-09-07T00:10:40.039Z,2.17
2022-09-07T00:13:43.951Z,2.00
2022-09-07T00:16:46.577Z,1.87
2022-09-07T00:19:49.238Z,1.90
2022-09-07T00:22:51.836Z,1.90
2022-09-07T00:25:59.530Z,2.10
2022-09-07T00:29:04.068Z,2.07
2022-09-07T00:32:06.712Z,1.83
2022-09-07T00:35:10.207Z,1.97
2022-09-07T00:38:13.490Z,1.90
2022-09-07T00:41:19.309Z,2.27
2022-09-07T00:45:10.927Z,1.90
2022-09-07T00:48:20.987Z,1.93
2022-09-07T00:51:28.619Z,1.90
2022-09-07T00:54:36.954Z,2.13
2022-09-07T00:57:44.348Z,1.83
2022-09-07T01:00:48.565Z,1.90
2022-09-07T01:03:53.623Z,2.10
2022-09-07T01:06:56.734Z,1.90
2022-09-07T01:10:00.153Z,2.13
2022-09-07T01:13:04.138Z,2.30
2022-09-07T01:16:13.946Z,2.17
2022-09-07T01:19:58.840Z,2.40
2022-09-07T01:23:31.452Z,2.00
2022-09-07T01:27:12.224Z,2.00
2022-09-07T01:30:19.081Z,2.10
2022-09-07T01:33:41.005Z,2.27
2022-09-07T01:36:51.652Z,1.87
2022-09-07T01:40:09.118Z,2.03
2022-09-07T01:43:18.163Z,2.10
2022-09-07T01:46:27.504Z,1.87
2022-09-07T01:49:35.789Z,2.27
2022-09-07T01:52:45.261Z,1.87
2022-09-07T01:55:51.530Z,2.10
2022-09-07T01:58:58.197Z,2.67
2022-09-07T02:02:06.875Z,1.90
2022-09-07T02:05:14.498Z,2.10
2022-09-07T02:08:24.713Z,2.10
2022-09-07T02:11:34.589Z,2.20
2022-09-07T02:14:42.045Z,2.20
2022-09-07T02:17:52.356Z,2.20
2022-09-07T02:20:59.014Z,2.40
2022-09-07T02:24:06.388Z,2.23
2022-09-07T02:27:14.394Z,2.40
2022-09-07T02:30:17.519Z,2.30
2022-09-07T02:33:21.912Z,2.20
2022-09-07T02:36:30.373Z,2.40
2022-09-07T02:39:33.650Z,2.50
2022-09-07T02:42:37.717Z,2.40
2022-09-07T02:45:57.371Z,2.40
2022-09-07T02:49:10.080Z,2.23
2022-09-07T02:52:23.512Z,2.20
2022-09-07T02:55:36.340Z,2.10
2022-09-07T02:58:47.414Z,2.30
2022-09-07T03:02:01.265Z,2.53
2022-09-07T03:05:13.287Z,2.07
2022-09-07T03:08:20.029Z,2.17
2022-09-07T03:11:23.624Z,2.30
2022-09-07T03:14:30.224Z,2.40
2022-09-07T03:17:32.858Z,2.40
2022-09-07T03:20:36.824Z,2.43
2022-09-07T03:23:39.503Z,2.50
2022-09-07T03:26:46.078Z,2.47
2022-09-07T03:29:48.721Z,2.53
2022-09-07T03:32:51.378Z,2.50
2022-09-07T03:36:02.574Z,2.50
2022-09-07T03:39:07.029Z,2.40
2022-09-07T03:42:09.794Z,2.55
2022-09-07T03:45:12.478Z,2.33
2022-09-07T03:48:15.120Z,2.90
2022-09-07T03:51:19.697Z,2.63
2022-09-07T03:54:22.754Z,2.70
2022-09-07T03:57:25.366Z,2.60
2022-09-07T04:00:27.980Z,3.13
2022-09-07T04:03:30.582Z,2.97
2022-09-07T04:06:34.720Z,3.10
2022-09-07T04:09:37.305Z,2.60
2022-09-07T04:12:39.912Z,2.70
2022-09-07T04:15:42.498Z,2.50
2022-09-07T04:18:45.326Z,2.90
2022-09-07T04:21:49.310Z,2.60
2022-09-07T04:24:51.902Z,2.50
2022-09-07T04:27:54.880Z,3.80
2022-09-07T04:31:01.382Z,3.73
2022-09-07T04:34:05.196Z,3.20
2022-09-07T04:37:09.110Z,2.60
2022-09-07T04:40:12.395Z,2.57
2022-09-07T04:43:15.042Z,2.83
2022-09-07T04:46:21.657Z,2.80
2022-09-07T04:49:24.303Z,2.67
2022-09-07T04:52:28.251Z,2.50
2022-09-07T04:55:30.848Z,2.60
2022-09-07T04:58:33.464Z,3.23
2022-09-07T05:01:36.159Z,3.00
2022-09-07T05:04:38.793Z,2.97
2022-09-07T05:07:42.782Z,3.07
2022-09-07T05:10:52.202Z,2.80
2022-09-07T05:13:56.666Z,3.10
2022-09-07T05:16:59.338Z,2.87
2022-09-07T05:20:02.022Z,2.70
2022-09-07T05:23:05.993Z,2.87
2022-09-07T05:26:09.356Z,2.90
2022-09-07T05:32:34.737Z,2.87
2022-09-07T05:35:37.328Z,2.87
2022-09-07T05:38:41.355Z,2.80
2022-09-07T05:41:44.006Z,2.90
2022-09-07T05:44:46.638Z,2.60
2022-09-07T05:47:50.789Z,2.77
2022-09-07T05:50:54.147Z,2.67
2022-09-07T05:53:58.612Z,2.70
2022-09-07T05:57:03.088Z,2.60
2022-09-07T06:00:06.425Z,2.93
2022-09-07T06:03:09.260Z,2.70
2022-09-07T06:06:13.362Z,2.80
2022-09-07T06:09:17.334Z,2.60
2022-09-07T06:12:20.044Z,2.70
2022-09-07T06:15:22.654Z,2.70
2022-09-07T06:18:25.249Z,2.67
2022-09-07T06:21:27.863Z,2.80
2022-09-07T06:24:31.833Z,2.57
2022-09-07T06:27:34.784Z,2.83
2022-09-07T06:30:37.520Z,2.80
2022-09-07T06:33:40.633Z,2.90
2022-09-07T06:36:43.220Z,2.57
2022-09-07T06:39:49.345Z,2.93
2022-09-07T06:42:52.058Z,2.87
2022-09-07T06:45:55.385Z,2.73
2022-09-07T06:48:58.120Z,3.47
2022-09-07T06:52:00.732Z,3.03
2022-09-07T06:55:05.045Z,3.23
2022-09-07T06:58:08.516Z,3.10
2022-09-07T07:01:14.558Z,2.80
2022-09-07T07:04:17.185Z,3.73
2022-09-07T07:07:19.792Z,3.00
2022-09-07T07:10:24.840Z,3.10
2022-09-07T07:13:27.949Z,3.17
2022-09-07T07:16:30.651Z,2.87
2022-09-07T07:19:33.356Z,3.00
2022-09-07T07:22:46.488Z,2.83
2022-09-07T07:25:51.090Z,3.10
2022-09-07T07:29:03.548Z,3.67
2022-09-07T07:32:06.874Z,3.67
2022-09-07T07:35:18.200Z,3.07
2022-09-07T07:48:17.595Z,3.10
2022-09-07T07:51:20.553Z,3.33
2022-09-07T07:54:23.120Z,3.27
2022-09-07T07:57:27.046Z,3.37
2022-09-07T08:00:50.697Z,3.63
2022-09-07T08:03:52.541Z,4.40
2022-09-07T08:06:55.083Z,3.77
2022-09-07T08:09:57.681Z,3.33
2022-09-07T08:13:01.611Z,3.77
2022-09-07T08:16:05.413Z,3.13
2022-09-07T08:19:07.896Z,3.47
2022-09-07T08:22:11.659Z,3.33
2022-09-07T08:25:14.148Z,3.20
2022-09-07T08:28:17.971Z,3.47
2022-09-07T08:31:21.788Z,3.67
2022-09-07T08:34:24.286Z,3.33
2022-09-07T08:37:26.780Z,3.17
2022-09-07T08:40:30.170Z,3.27
2022-09-07T08:43:49.936Z,3.47
2022-09-07T08:46:57.413Z,3.40
2022-09-07T08:50:05.198Z,2.90
2022-09-07T08:53:13.514Z,3.40
2022-09-07T08:56:23.243Z,3.10
2022-09-07T08:59:36.727Z,3.30
2022-09-07T09:02:43.989Z,3.37
2022-09-07T09:06:01.619Z,3.13
2022-09-07T09:09:17.493Z,3.17
2022-09-07T09:12:36.833Z,3.30
2022-09-07T09:15:59.345Z,2.90
2022-09-07T09:19:15.399Z,2.90
2022-09-07T09:22:20.305Z,2.80
2022-09-07T09:25:27.682Z,3.30
2022-09-07T09:28:32.330Z,3.30
2022-09-07T09:31:36.989Z,2.87
2022-09-07T09:34:39.525Z,3.20
2022-09-07T09:37:43.538Z,2.93
2022-09-07T09:40:53.537Z,2.97
2022-09-07T09:43:58.097Z,2.80
2022-09-07T09:54:02.597Z,3.17
2022-09-07T09:57:05.691Z,3.23
2022-09-07T10:00:27.878Z,3.33
2022-09-07T10:07:00.083Z,3.40
2022-09-07T10:10:02.662Z,3.40
2022-09-07T10:13:08.663Z,3.50
2022-09-07T10:16:12.369Z,3.23
2022-09-07T10:19:30.836Z,3.80
2022-09-07T10:22:35.913Z,3.50
2022-09-07T10:25:40.469Z,3.67
2022-09-07T10:32:26.316Z,3.75
2022-09-07T10:35:34.282Z,3.33
2022-09-07T10:38:43.455Z,3.25
2022-09-07T10:41:54.762Z,3.40
2022-09-07T10:45:09.051Z,3.60
2022-09-07T10:48:18.125Z,3.47
2022-09-07T10:51:30.981Z,2.90
2022-09-07T10:54:43.489Z,3.15
2022-09-07T10:57:59.437Z,3.15
2022-09-07T11:01:12.526Z,3.10
2022-09-07T11:04:41.673Z,2.88
2022-09-07T11:08:02.173Z,3.20
2022-09-07T11:11:17.317Z,3.08
2022-09-07T11:14:25.336Z,2.95
2022-09-07T11:17:30.057Z,3.53
2022-09-07T11:20:37.449Z,3.38
2022-09-07T11:23:45.164Z,3.25
2022-09-07T11:26:51.589Z,3.25
2022-09-07T11:30:00.415Z,3.17
2022-09-07T11:33:10.970Z,3.40
2022-09-07T11:36:17.309Z,3.22
2022-09-07T11:39:26.476Z,2.78
2022-09-07T11:42:50.342Z,2.72
2022-09-07T11:45:57.752Z,2.97
2022-09-07T11:49:04.269Z,3.10
2022-09-07T11:52:11.881Z,3.38
2022-09-07T11:55:21.481Z,3.20
2022-09-07T11:58:50.178Z,3.15
2022-09-07T12:02:12.280Z,2.80
2022-09-07T12:05:26.187Z,3.25
2022-09-07T12:08:41.715Z,3.28
2022-09-07T12:12:04.811Z,3.40
2022-09-07T12:15:19.850Z,3.40
2022-09-07T12:18:36.856Z,3.22
2022-09-07T12:21:43.262Z,3.20
2022-09-07T12:24:48.349Z,3.72
2022-09-07T12:27:52.970Z,3.50
2022-09-07T12:30:58.543Z,3.40
2022-09-07T12:34:34.343Z,3.95
2022-09-07T12:37:40.442Z,3.50
2022-09-07T12:40:59.880Z,3.50
2022-09-07T12:44:16.693Z,4.10
2022-09-07T12:47:29.265Z,4.07
2022-09-07T12:50:39.270Z,3.35
2022-09-07T12:53:57.611Z,3.55
2022-09-07T12:57:30.891Z,3.13
2022-09-07T13:00:49.175Z,3.40
2022-09-07T13:04:23.108Z,3.42
2022-09-07T13:07:42.396Z,3.15
2022-09-07T13:10:47.077Z,3.45
2022-09-07T13:14:03.936Z,3.50
2022-09-07T13:17:44.364Z,3.90
2022-09-07T13:21:06.964Z,3.58
2022-09-07T13:24:49.801Z,3.50
2022-09-07T13:27:55.601Z,3.63
2022-09-07T13:31:14.901Z,3.70
2022-09-07T13:34:48.500Z,3.60
2022-09-07T13:37:53.712Z,3.55
2022-09-07T13:41:00.422Z,4.10
2022-09-07T13:44:05.662Z,4.55
2022-09-07T13:47:21.580Z,4.22
2022-09-07T13:50:40.123Z,4.63
2022-09-07T13:53:57.613Z,8.70
2022-09-07T13:57:12.590Z,4.78
2022-09-07T14:00:16.605Z,4.43
2022-09-07T14:03:19.128Z,4.60
2022-09-07T14:06:32.523Z,5.03
2022-09-07T14:09:35.834Z,4.88
2022-09-07T14:12:44.018Z,4.95
2022-09-07T14:15:48.844Z,5.40
2022-09-07T14:18:51.409Z,5.25
2022-09-07T14:22:00.180Z,4.70
2022-09-07T14:25:05.721Z,4.53
2022-09-07T14:28:30.297Z,4.88
2022-09-07T14:31:33.219Z,10.68
2022-09-07T14:34:38.186Z,5.07
2022-09-07T14:37:42.702Z,4.45
2022-09-07T14:40:45.273Z,3.97
2022-09-07T14:43:56.030Z,4.50
2022-09-07T14:47:00.553Z,4.57
2022-09-07T14:50:05.803Z,4.38
2022-09-07T14:56:41.516Z,4.35
2022-09-07T14:59:46.280Z,4.65
2022-09-07T15:02:48.832Z,4.10
2022-09-07T15:05:51.622Z,4.40
2022-09-07T15:08:55.520Z,4.22
2022-09-07T15:12:15.006Z,5.05
2022-09-07T15:15:26.221Z,4.47
2022-09-07T15:18:54.477Z,4.10
2022-09-07T15:21:57.142Z,4.80
2022-09-07T15:25:01.121Z,4.68
2022-09-07T15:28:04.005Z,4.35
2022-09-07T15:34:29.476Z,4.85
2022-09-07T15:41:22.033Z,4.80
2022-09-07T15:44:25.019Z,4.78
2022-09-07T15:47:50.402Z,5.03
2022-09-07T15:50:51.753Z,4.63
2022-09-07T15:54:13.182Z,4.55
2022-09-07T16:00:40.867Z,4.57
2022-09-07T16:03:43.513Z,4.53
2022-09-07T16:06:48.149Z,4.68
2022-09-07T16:09:52.463Z,4.53
2022-09-07T16:13:10.457Z,5.10
2022-09-07T16:16:15.669Z,4.75
2022-09-07T16:19:21.655Z,5.05
2022-09-07T16:25:57.958Z,5.13
2022-09-07T16:29:02.202Z,5.20
2022-09-07T16:35:27.503Z,5.25
2022-09-07T16:38:47.381Z,5.30
2022-09-07T16:41:50.438Z,5.93
2022-09-07T16:44:54.857Z,6.13
2022-09-07T16:47:57.751Z,5.35
2022-09-07T16:51:02.596Z,5.78
2022-09-07T16:54:06.477Z,5.75
2022-09-07T16:57:09.119Z,5.55
2022-09-07T17:00:15.165Z,5.72
2022-09-07T17:03:17.767Z,5.60
2022-09-07T17:06:23.566Z,5.50
2022-09-07T17:09:28.582Z,6.10
2022-09-07T17:12:31.406Z,6.00
2022-09-07T17:15:35.620Z,5.60
2022-09-07T17:22:01.923Z,5.53
2022-09-07T17:25:05.074Z,5.68
2022-09-07T17:28:07.701Z,5.85
2022-09-07T17:32:23.721Z,6.32
2022-09-07T17:34:36.776Z,5.45
2022-09-07T17:37:39.322Z,5.90
2022-09-07T17:40:43.951Z,6.13
2022-09-07T17:43:47.127Z,5.78
2022-09-07T17:46:51.154Z,5.50
2022-09-07T17:49:53.833Z,6.47
2022-09-07T17:52:56.602Z,6.07
2022-09-07T17:55:59.241Z,5.80
2022-09-07T18:02:26.800Z,6.33
2022-09-07T18:05:29.374Z,6.27
2022-09-07T18:08:32.055Z,5.67
2022-09-07T18:11:50.912Z,5.47
2022-09-07T18:14:53.730Z,6.23
2022-09-07T18:17:58.515Z,6.17
2022-09-07T18:21:01.133Z,6.00
2022-09-07T18:24:07.463Z,5.83
2022-09-07T18:27:10.169Z,5.87
2022-09-07T18:30:13.773Z,5.90
2022-09-07T18:33:17.803Z,5.73
2022-09-07T18:36:20.703Z,6.07
2022-09-07T18:39:23.340Z,6.33
2022-09-07T18:42:25.946Z,6.00
2022-09-07T18:45:28.649Z,6.23
2022-09-07T18:48:33.070Z,5.77
2022-09-07T18:52:51.573Z,5.60
2022-09-07T18:54:58.166Z,6.10
2022-09-07T18:58:02.726Z,5.50
2022-09-07T19:01:06.343Z,6.00
2022-09-07T19:04:10.589Z,6.13
2022-09-07T19:07:13.400Z,5.67
2022-09-07T19:10:16.760Z,6.07
2022-09-07T19:13:19.398Z,6.30
2022-09-07T19:16:22.723Z,6.70
2022-09-07T19:19:26.811Z,6.47
2022-09-07T19:22:29.588Z,5.93
2022-09-07T19:25:32.223Z,6.23
2022-09-07T19:28:35.261Z,5.63
2022-09-07T19:31:37.909Z,6.30
2022-09-07T19:34:43.624Z,5.80
2022-09-07T19:37:46.245Z,6.43
2022-09-07T19:40:56.299Z,5.93
2022-09-07T19:43:59.086Z,5.87
2022-09-07T19:47:02.037Z,5.60
2022-09-07T19:50:07.030Z,6.03
2022-09-07T19:53:09.638Z,5.73
2022-09-07T19:56:14.158Z,5.80
2022-09-07T19:59:19.532Z,5.87
2022-09-07T20:02:22.102Z,5.80
2022-09-07T20:05:29.445Z,6.20
2022-09-07T20:08:32.044Z,6.53
2022-09-07T20:11:35.645Z,6.20
2022-09-07T20:14:38.170Z,6.20
2022-09-07T20:17:40.697Z,5.87
2022-09-07T20:20:44.624Z,6.80
2022-09-07T20:23:47.314Z,6.43
2022-09-07T20:26:50.366Z,6.30
2022-09-07T20:29:53.194Z,6.40
2022-09-07T20:32:55.771Z,6.73
2022-09-07T20:36:04.694Z,7.27
2022-09-07T20:39:07.166Z,6.80
2022-09-07T20:42:09.829Z,7.00
2022-09-07T20:45:12.323Z,6.40
2022-09-07T20:48:15.330Z,6.47
2022-09-07T20:51:21.247Z,6.67
2022-09-07T20:54:23.798Z,6.53
2022-09-07T20:57:26.286Z,5.80
2022-09-07T21:00:29.397Z,6.23
2022-09-07T21:03:31.979Z,6.60
2022-09-07T21:06:35.784Z,6.10
2022-09-07T21:09:38.248Z,6.77
2022-09-07T21:12:40.725Z,6.87
2022-09-07T21:15:45.047Z,7.10
2022-09-07T21:18:47.567Z,6.83
2022-09-07T21:21:51.391Z,6.23
2022-09-07T21:24:53.912Z,7.10
2022-09-07T21:27:56.511Z,7.07
2022-09-07T21:31:00.509Z,7.03
2022-09-07T21:34:03.456Z,6.53
2022-09-07T21:37:07.293Z,7.30
2022-09-07T21:40:10.658Z,7.23
2022-09-07T21:43:13.233Z,7.17
2022-09-07T21:46:18.507Z,7.53
2022-09-07T21:49:21.040Z,7.40
2022-09-07T21:52:24.939Z,7.50
2022-09-07T21:55:27.430Z,7.63
2022-09-07T21:58:30.611Z,7.67
2022-09-07T22:01:34.254Z,7.77
2022-09-07T22:04:36.816Z,7.33
2022-09-07T22:07:40.651Z,7.50
2022-09-07T22:10:43.617Z,7.50
2022-09-07T22:13:46.515Z,7.37
2022-09-07T22:16:48.970Z,6.97
2022-09-07T22:19:51.553Z,7.57
2022-09-07T22:22:55.358Z,7.33
2022-09-07T22:25:57.847Z,7.83
2022-09-07T22:29:00.476Z,7.20
2022-09-07T22:32:03.427Z,7.33
2022-09-07T22:35:06.795Z,7.63
2022-09-07T22:38:10.632Z,7.67
2022-09-07T22:41:15.426Z,7.40
2022-09-07T22:44:19.537Z,8.03
2022-09-07T22:47:22.029Z,7.20
2022-09-07T22:50:24.520Z,8.40
2022-09-07T22:53:28.953Z,7.20
2022-09-07T22:56:33.878Z,7.37
2022-09-07T22:59:36.370Z,7.83
2022-09-07T23:02:38.844Z,7.33
2022-09-07T23:05:41.378Z,7.50
2022-09-07T23:08:45.226Z,7.93
2022-09-07T23:11:48.944Z,8.00
2022-09-07T23:14:51.443Z,7.70
2022-09-07T23:17:53.937Z,7.97
2022-09-07T23:21:00.416Z,7.73
2022-09-07T23:24:05.027Z,7.93
2022-09-07T23:27:07.482Z,7.50
2022-09-07T23:30:11.631Z,7.63
2022-09-07T23:33:14.265Z,7.83
2022-09-07T23:36:17.453Z,7.37
2022-09-07T23:39:21.405Z,7.90
2022-09-07T23:42:23.882Z,7.67
2022-09-07T23:45:27.111Z,7.53
2022-09-07T23:48:29.710Z,7.40
2022-09-07T23:51:32.181Z,8.13
2022-09-07T23:54:35.995Z,8.53
2022-09-07T23:57:39.193Z,8.60
